Time;durP1;ratioP1;P1;durP2;ratioP2;P2;SDS_P1;SDS_P2;PMS_P1;PMS_P2;Temp;Humidity;BMP_temperature;BMP_pressure;BME280_temperature;BME280_humidity;BME280_pressure;Samples;Min_cycle;Max_cycle;Signal;HPM_P1;HPM_P2
2022/10/11 00:01:04;;;;;;;3.97;1.52;;;;;13.50;102258.00;;;;5090852;28;20202;-76
2022/10/11 00:03:31;;;;;;;7.65;2.83;;;;;13.50;102265.00;;;;5089126;28;20205;-77
2022/10/11 00:05:58;;;;;;;2.42;1.60;;;;;13.40;102253.00;;;;5090982;28;20430;-76
2022/10/11 00:08:25;;;;;;;4.53;1.60;;;;;13.40;102254.00;;;;5091386;28;20285;-77
2022/10/11 00:11:04;;;;;;;3.13;1.48;;;;;13.30;102258.00;;;;5082469;28;20206;-77
2022/10/11 00:13:32;;;;;;;3.60;1.40;;;;;13.40;102253.00;;;;5090787;28;20209;-77
2022/10/11 00:16:00;;;;;;;3.53;1.88;;;;;13.40;102258.00;;;;5085502;28;20229;-77
2022/10/11 00:18:28;;;;;;;7.90;1.70;;;;;13.40;102260.00;;;;5090007;28;20218;-76
2022/10/11 00:21:02;;;;;;;4.38;1.70;;;;;13.30;102262.00;;;;5080136;28;20684;-77
2022/10/11 00:23:29;;;;;;;5.72;2.40;;;;;13.30;102262.00;;;;5071502;28;20199;-77
2022/10/11 00:26:00;;;;;;;3.97;1.42;;;;;13.30;102263.00;;;;5082700;28;20647;-77
2022/10/11 00:28:27;;;;;;;2.33;1.50;;;;;13.30;102273.00;;;;5089886;28;20210;-77
2022/10/11 00:30:54;;;;;;;2.90;1.42;;;;;13.20;102270.00;;;;5090104;28;20202;-77
2022/10/11 00:33:23;;;;;;;4.13;1.23;;;;;13.20;102274.00;;;;5078872;28;20747;-77
2022/10/11 00:35:50;;;;;;;3.97;1.25;;;;;13.20;102270.00;;;;5086240;28;20222;-77
2022/10/11 00:38:18;;;;;;;4.70;1.35;;;;;13.20;102278.00;;;;5089867;28;20519;-77
2022/10/11 00:40:46;;;;;;;4.38;2.13;;;;;13.20;102276.00;;;;5091499;28;20198;-77
2022/10/11 00:43:16;;;;;;;3.33;1.58;;;;;13.10;102274.00;;;;5090710;28;20198;-77
2022/10/11 00:46:01;;;;;;;2.08;1.20;;;;;13.00;102284.00;;;;5089777;28;20658;-77
2022/10/11 00:48:33;;;;;;;3.25;1.80;;;;;13.10;102280.00;;;;5071152;28;20194;-77
2022/10/11 00:51:05;;;;;;;4.07;1.55;;;;;13.10;102281.00;;;;5069924;28;20966;-77
2022/10/11 00:53:33;;;;;;;2.90;1.38;;;;;13.10;102282.00;;;;5083781;28;20194;-77
2022/10/11 00:56:04;;;;;;;3.28;1.67;;;;;13.00;102288.00;;;;5082115;28;20528;-77
2022/10/11 00:58:33;;;;;;;4.25;1.50;;;;;13.00;102299.00;;;;5070906;28;20580;-77
2022/10/11 01:01:01;;;;;;;3.60;1.65;;;;;13.00;102295.00;;;;5081053;28;20191;-77
2022/10/11 01:03:32;;;;;;;3.78;1.73;;;;;13.00;102294.00;;;;5089667;28;20198;-77
2022/10/11 01:06:00;;;;;;;2.38;1.50;;;;;13.00;102302.00;;;;5087393;28;20202;-77
2022/10/11 01:08:27;;;;;;;5.05;1.50;;;;;13.00;102311.00;;;;5090852;28;20205;-77
2022/10/11 01:10:55;;;;;;;4.32;1.40;;;;;13.00;102309.00;;;;5087081;28;20198;-77
2022/10/11 01:13:36;;;;;;;3.97;1.50;;;;;12.90;102304.00;;;;5085937;28;20199;-77
2022/10/11 01:16:13;;;;;;;3.70;2.00;;;;;12.90;102310.00;;;;5088416;28;20229;-77
2022/10/11 01:18:48;;;;;;;2.45;1.60;;;;;12.90;102308.00;;;;5080581;28;20226;-77
2022/10/11 01:21:29;;;;;;;3.72;1.52;;;;;12.80;102315.00;;;;5073926;28;20319;-77
2022/10/11 01:24:22;;;;;;;2.92;1.63;;;;;12.80;102302.00;;;;5069852;28;20198;-77
2022/10/11 01:27:12;;;;;;;3.22;1.38;;;;;12.70;102307.00;;;;5071749;28;20226;-77
2022/10/11 01:29:46;;;;;;;4.75;1.30;;;;;12.80;102314.00;;;;5075279;28;20225;-77
2022/10/11 01:32:19;;;;;;;2.35;1.30;;;;;12.80;102303.00;;;;5086671;28;20195;-77
2022/10/11 01:34:54;;;;;;;4.55;1.70;;;;;12.70;102303.00;;;;5084264;28;20194;-77
2022/10/11 01:37:27;;;;;;;1.73;1.45;;;;;12.70;102309.00;;;;5087307;28;20229;-76
2022/10/11 01:39:59;;;;;;;1.95;1.20;;;;;12.70;102309.00;;;;5088899;28;20190;-77
2022/10/11 01:42:28;;;;;;;3.15;1.55;;;;;12.70;102310.00;;;;5089342;28;20194;-77
2022/10/11 01:44:57;;;;;;;2.70;1.70;;;;;12.70;102313.00;;;;5088835;28;20190;-77
2022/10/11 01:47:26;;;;;;;7.38;1.45;;;;;12.70;102312.00;;;;5074619;28;20206;-77
2022/10/11 01:49:55;;;;;;;3.38;1.45;;;;;12.70;102310.00;;;;5087183;28;20199;-77
2022/10/11 01:52:23;;;;;;;4.47;1.67;;;;;12.70;102309.00;;;;5082856;28;20210;-77
2022/10/11 01:55:04;;;;;;;2.08;1.42;;;;;12.60;102315.00;;;;5072044;28;20202;-77
2022/10/11 01:58:13;;;;;;;2.10;1.00;;;;;12.50;102316.00;;;;5076743;28;20205;-77
2022/10/11 02:00:48;;;;;;;2.88;1.35;;;;;12.60;102319.00;;;;5012437;28;20591;-77
2022/10/11 02:03:28;;;;;;;6.68;1.55;;;;;12.50;102327.00;;;;5075899;28;20217;-77
2022/10/11 02:05:59;;;;;;;4.80;1.48;;;;;12.60;102321.00;;;;5080336;28;20661;-77
2022/10/11 02:08:36;;;;;;;3.42;1.25;;;;;12.50;102325.00;;;;5088606;28;20190;-76
2022/10/11 02:11:09;;;;;;;2.65;1.17;;;;;12.50;102320.00;;;;5087929;28;20601;-77
2022/10/11 02:13:40;;;;;;;2.15;1.30;;;;;12.50;102323.00;;;;5087482;28;20198;-76
2022/10/11 02:16:11;;;;;;;2.95;1.20;;;;;12.50;102318.00;;;;5087654;28;20232;-76
2022/10/11 02:18:45;;;;;;;4.03;1.77;;;;;12.50;102320.00;;;;5088485;28;20257;-76
2022/10/11 02:21:16;;;;;;;4.15;1.25;;;;;12.50;102318.00;;;;5068457;28;20195;-76
2022/10/11 02:23:48;;;;;;;1.73;1.00;;;;;12.50;102321.00;;;;5087656;28;20205;-77
2022/10/11 02:26:16;;;;;;;2.17;1.40;;;;;12.50;102324.00;;;;5086459;28;20672;-76
2022/10/11 02:28:45;;;;;;;2.22;1.48;;;;;12.50;102318.00;;;;5083750;28;20218;-77
2022/10/11 02:31:14;;;;;;;4.63;1.40;;;;;12.40;102318.00;;;;5068815;28;20199;-77
2022/10/11 02:33:49;;;;;;;2.30;1.38;;;;;12.40;102329.00;;;;5074203;28;20191;-77
2022/10/11 02:36:24;;;;;;;3.38;1.50;;;;;12.40;102328.00;;;;5085780;28;20228;-76
2022/10/11 02:38:55;;;;;;;2.97;1.63;;;;;12.40;102332.00;;;;5084385;28;20202;-77
2022/10/11 02:41:29;;;;;;;1.95;1.27;;;;;12.40;102328.00;;;;5079058;28;20199;-76
2022/10/11 02:44:00;;;;;;;2.25;1.33;;;;;12.40;102330.00;;;;5086366;28;20644;-76
2022/10/11 02:46:30;;;;;;;2.75;1.27;;;;;12.40;102328.00;;;;5083553;28;20194;-76
2022/10/11 02:48:59;;;;;;;2.72;1.05;;;;;12.40;102328.00;;;;5074622;28;20190;-76
2022/10/11 02:51:29;;;;;;;2.13;1.13;;;;;12.40;102333.00;;;;5073148;28;20198;-76
2022/10/11 02:53:57;;;;;;;1.52;0.98;;;;;12.40;102331.00;;;;5087204;28;20195;-76
2022/10/11 02:56:24;;;;;;;2.92;1.60;;;;;12.40;102335.00;;;;5075912;28;20227;-76
2022/10/11 02:58:51;;;;;;;4.65;1.67;;;;;12.40;102334.00;;;;5086822;28;20726;-76
2022/10/11 03:01:18;;;;;;;4.35;1.30;;;;;12.40;102333.00;;;;5079487;28;20194;-77
2022/10/11 03:03:46;;;;;;;2.05;1.10;;;;;12.30;102332.00;;;;5076903;28;20214;-77
2022/10/11 03:06:14;;;;;;;1.95;1.13;;;;;12.30;102330.00;;;;5076585;28;20186;-77
2022/10/11 03:08:42;;;;;;;4.18;1.58;;;;;12.30;102337.00;;;;5088347;28;20202;-77
2022/10/11 03:11:09;;;;;;;6.15;1.27;;;;;12.30;102337.00;;;;5081506;28;20199;-77
2022/10/11 03:13:36;;;;;;;3.53;1.73;;;;;12.30;102336.00;;;;5067961;28;20203;-77
2022/10/11 03:16:04;;;;;;;1.23;1.02;;;;;12.30;102336.00;;;;5076295;28;20194;-77
2022/10/11 03:18:31;;;;;;;2.50;1.60;;;;;12.20;102338.00;;;;5086926;28;20610;-77
2022/10/11 03:20:58;;;;;;;2.45;1.40;;;;;12.30;102332.00;;;;5088043;28;20201;-76
2022/10/11 03:23:27;;;;;;;2.85;1.20;;;;;12.20;102333.00;;;;5087658;28;20194;-77
2022/10/11 03:25:54;;;;;;;2.50;1.30;;;;;12.20;102349.00;;;;5087043;28;20190;-76
2022/10/11 03:28:21;;;;;;;3.75;1.55;;;;;12.20;102335.00;;;;5088213;28;20501;-76
2022/10/11 03:30:49;;;;;;;2.47;1.25;;;;;12.20;102338.00;;;;5070026;28;20213;-77
2022/10/11 03:33:17;;;;;;;2.53;1.17;;;;;12.20;102330.00;;;;5084807;28;20695;-77
2022/10/11 03:35:45;;;;;;;5.05;1.60;;;;;12.20;102338.00;;;;5070442;28;20236;-76
2022/10/11 03:38:14;;;;;;;3.38;1.10;;;;;12.20;102344.00;;;;5067842;28;20231;-77
2022/10/11 03:40:43;;;;;;;2.72;1.25;;;;;12.20;102354.00;;;;5085998;28;20214;-77
2022/10/11 03:43:11;;;;;;;1.67;1.27;;;;;12.20;102349.00;;;;5078173;28;20205;-76
2022/10/11 03:45:41;;;;;;;2.08;1.27;;;;;12.20;102351.00;;;;5087911;28;20191;-77
2022/10/11 03:48:08;;;;;;;3.60;1.45;;;;;12.20;102346.00;;;;5085972;28;20190;-76
2022/10/11 03:50:36;;;;;;;2.97;1.20;;;;;12.10;102349.00;;;;5085372;28;20194;-77
2022/10/11 03:53:04;;;;;;;5.00;1.83;;;;;12.10;102361.00;;;;5084806;28;20974;-77
2022/10/11 03:55:31;;;;;;;3.97;1.20;;;;;12.10;102354.00;;;;5074775;28;20195;-77
2022/10/11 03:58:00;;;;;;;2.67;1.48;;;;;12.10;102356.00;;;;5075996;28;20237;-77
2022/10/11 04:00:27;;;;;;;1.90;1.27;;;;;12.10;102357.00;;;;5089419;28;20202;-77
2022/10/11 04:02:54;;;;;;;4.30;1.38;;;;;12.10;102365.00;;;;5089814;28;20190;-77
2022/10/11 04:05:22;;;;;;;2.53;1.10;;;;;12.10;102375.00;;;;5092089;28;20485;-77
2022/10/11 04:07:49;;;;;;;2.70;1.50;;;;;12.10;102363.00;;;;5089498;28;20379;-77
2022/10/11 04:10:16;;;;;;;2.35;1.42;;;;;12.00;102366.00;;;;5070989;28;20187;-76
2022/10/11 04:12:44;;;;;;;1.83;1.48;;;;;12.00;102365.00;;;;5085441;28;20205;-76
2022/10/11 04:15:12;;;;;;;3.30;1.60;;;;;12.00;102365.00;;;;5091551;28;20190;-76
2022/10/11 04:17:40;;;;;;;2.05;1.25;;;;;12.00;102373.00;;;;5083695;28;20700;-76
2022/10/11 04:20:08;;;;;;;2.75;1.30;;;;;12.00;102375.00;;;;5071314;28;20187;-76
2022/10/11 04:22:37;;;;;;;3.47;2.03;;;;;12.00;102378.00;;;;5081054;28;20207;-76
2022/10/11 04:25:05;;;;;;;2.45;1.63;;;;;12.00;102375.00;;;;5075179;28;20199;-76
2022/10/11 04:27:32;;;;;;;2.85;1.58;;;;;12.00;102377.00;;;;5090609;28;20182;-76
2022/10/11 04:29:59;;;;;;;4.20;1.63;;;;;12.00;102376.00;;;;5076652;28;20606;-76
2022/10/11 04:32:28;;;;;;;3.42;1.65;;;;;12.00;102373.00;;;;5074319;28;20194;-76
2022/10/11 04:34:56;;;;;;;2.30;1.52;;;;;12.00;102382.00;;;;5076709;28;20195;-76
2022/10/11 04:37:23;;;;;;;3.15;1.77;;;;;12.00;102383.00;;;;5070653;28;20846;-76
2022/10/11 04:39:50;;;;;;;3.83;1.70;;;;;12.00;102386.00;;;;5083460;28;20202;-75
2022/10/11 04:42:19;;;;;;;2.90;1.20;;;;;12.00;102384.00;;;;5081369;28;20218;-76
2022/10/11 04:44:46;;;;;;;2.22;1.30;;;;;12.00;102388.00;;;;5090406;28;20236;-76
2022/10/11 04:47:13;;;;;;;2.75;1.70;;;;;12.00;102396.00;;;;5091149;28;20198;-76
2022/10/11 04:49:42;;;;;;;2.75;1.48;;;;;11.90;102398.00;;;;5083389;28;20199;-76
2022/10/11 04:52:09;;;;;;;2.58;1.30;;;;;11.90;102398.00;;;;5088531;28;20290;-76
2022/10/11 04:54:37;;;;;;;4.30;2.13;;;;;11.90;102396.00;;;;5082430;28;20209;-76
2022/10/11 04:57:04;;;;;;;4.63;1.83;;;;;11.90;102396.00;;;;5090354;28;20775;-76
2022/10/11 04:59:32;;;;;;;2.85;1.42;;;;;11.90;102391.00;;;;5085060;28;20913;-76
2022/10/11 05:01:59;;;;;;;2.13;1.45;;;;;11.90;102400.00;;;;5079416;28;20198;-77
2022/10/11 05:04:26;;;;;;;3.53;1.67;;;;;11.90;102401.00;;;;5082968;28;20202;-77
2022/10/11 05:06:55;;;;;;;4.45;1.45;;;;;11.90;102400.00;;;;5086208;28;20221;-77
2022/10/11 05:09:22;;;;;;;2.03;1.42;;;;;11.90;102396.00;;;;5086410;28;20522;-75
2022/10/11 05:11:49;;;;;;;3.00;1.42;;;;;11.90;102400.00;;;;5088759;28;20567;-75
2022/10/11 05:14:17;;;;;;;3.38;1.58;;;;;11.90;102405.00;;;;5089688;28;20201;-76
2022/10/11 05:16:44;;;;;;;3.03;1.30;;;;;11.90;102414.00;;;;5087678;28;20195;-75
2022/10/11 05:19:11;;;;;;;3.67;1.58;;;;;11.90;102417.00;;;;5089367;28;20213;-76
2022/10/11 05:21:38;;;;;;;4.15;1.77;;;;;11.90;102400.00;;;;5085979;28;20199;-75
2022/10/11 05:24:07;;;;;;;3.50;1.80;;;;;11.90;102408.00;;;;5086750;28;20647;-76
2022/10/11 05:26:35;;;;;;;3.40;1.83;;;;;11.90;102406.00;;;;5085113;28;20202;-76
2022/10/11 05:29:02;;;;;;;3.90;1.60;;;;;11.90;102407.00;;;;5088505;28;20233;-76
2022/10/11 05:31:29;;;;;;;4.78;1.55;;;;;11.90;102406.00;;;;5070810;28;20676;-77
2022/10/11 05:33:57;;;;;;;3.97;1.35;;;;;11.90;102411.00;;;;5072903;28;20213;-76
2022/10/11 05:36:24;;;;;;;4.60;1.38;;;;;11.80;102414.00;;;;5069207;28;20203;-76
2022/10/11 05:38:51;;;;;;;3.13;1.67;;;;;11.90;102407.00;;;;5083840;28;20218;-77
2022/10/11 05:41:20;;;;;;;2.80;1.48;;;;;11.80;102419.00;;;;5089517;28;20206;-77
2022/10/11 05:43:47;;;;;;;2.10;1.58;;;;;11.80;102425.00;;;;5089621;28;20203;-78
2022/10/11 05:46:14;;;;;;;3.58;1.67;;;;;11.80;102422.00;;;;5087256;28;20202;-77
2022/10/11 05:48:42;;;;;;;4.45;1.63;;;;;11.80;102424.00;;;;5080004;28;20193;-77
2022/10/11 05:51:11;;;;;;;3.17;1.80;;;;;11.80;102428.00;;;;5090063;28;20201;-77
2022/10/11 05:53:39;;;;;;;2.53;1.23;;;;;11.90;102425.00;;;;5088276;28;20210;-77
2022/10/11 05:56:16;;;;;;;2.85;2.00;;;;;11.90;102431.00;;;;5088573;28;20198;-77
2022/10/11 05:58:45;;;;;;;3.90;1.75;;;;;11.80;102433.00;;;;5079772;28;20226;-77
2022/10/11 06:01:17;;;;;;;3.25;1.83;;;;;11.80;102435.00;;;;5085526;28;20198;-77
2022/10/11 06:03:45;;;;;;;3.13;1.92;;;;;11.90;102435.00;;;;5089089;28;20202;-77
2022/10/11 06:06:12;;;;;;;2.90;1.80;;;;;11.90;102428.00;;;;5088547;28;20190;-77
2022/10/11 06:08:39;;;;;;;3.58;2.35;;;;;11.90;102438.00;;;;5088276;28;20679;-77
2022/10/11 06:11:12;;;;;;;2.05;1.70;;;;;11.90;102435.00;;;;5088281;28;20198;-77
2022/10/11 06:13:39;;;;;;;2.10;1.52;;;;;12.00;102439.00;;;;5085953;28;20198;-77
2022/10/11 06:16:08;;;;;;;2.95;2.13;;;;;12.00;102442.00;;;;5078380;28;20200;-77
2022/10/11 06:18:35;;;;;;;2.65;2.08;;;;;12.00;102442.00;;;;5087994;28;20267;-77
2022/10/11 06:21:03;;;;;;;4.32;2.40;;;;;12.00;102444.00;;;;5088443;28;20221;-77
2022/10/11 06:23:30;;;;;;;4.78;2.20;;;;;12.00;102446.00;;;;5088922;28;20202;-77
2022/10/11 06:25:59;;;;;;;4.32;3.08;;;;;12.00;102447.00;;;;5088829;28;20194;-77
2022/10/11 06:28:27;;;;;;;3.17;2.05;;;;;12.10;102456.00;;;;5087529;28;20202;-77
2022/10/11 06:30:55;;;;;;;3.25;2.15;;;;;12.10;102454.00;;;;5073843;28;20747;-77
2022/10/11 06:33:24;;;;;;;4.03;2.17;;;;;12.10;102452.00;;;;5084110;28;20217;-77
2022/10/11 06:35:57;;;;;;;5.35;2.28;;;;;12.10;102457.00;;;;5088428;28;20202;-77
2022/10/11 06:38:25;;;;;;;3.42;2.38;;;;;12.20;102462.00;;;;5087711;28;20234;-77
2022/10/11 06:40:53;;;;;;;4.43;2.78;;;;;12.20;102464.00;;;;5087786;28;20252;-77
2022/10/11 06:43:21;;;;;;;4.05;2.67;;;;;12.30;102460.00;;;;5081334;28;20654;-77
2022/10/11 06:45:48;;;;;;;3.45;2.17;;;;;12.30;102464.00;;;;5078861;28;20194;-77
2022/10/11 06:48:16;;;;;;;4.65;2.70;;;;;12.40;102464.00;;;;5080049;28;20209;-77
2022/10/11 06:50:44;;;;;;;4.55;2.10;;;;;12.40;102474.00;;;;5081023;28;20544;-77
2022/10/11 06:53:12;;;;;;;2.80;2.03;;;;;12.50;102473.00;;;;5073416;28;20687;-77
2022/10/11 06:55:39;;;;;;;4.47;2.75;;;;;12.50;102482.00;;;;5067340;28;20206;-77
2022/10/11 06:58:06;;;;;;;6.28;3.13;;;;;12.60;102479.00;;;;5067225;28;20211;-77
2022/10/11 07:00:34;;;;;;;2.90;2.03;;;;;12.60;102489.00;;;;5078525;28;20205;-77
2022/10/11 07:03:01;;;;;;;4.15;2.38;;;;;12.60;102488.00;;;;5087347;28;20202;-77
2022/10/11 07:05:30;;;;;;;3.55;2.28;;;;;12.70;102496.00;;;;5087636;28;20688;-77
2022/10/11 07:07:59;;;;;;;2.58;1.75;;;;;12.70;102490.00;;;;5081085;28;20202;-76
2022/10/11 07:10:26;;;;;;;2.97;2.17;;;;;12.80;102495.00;;;;5079911;28;20202;-76
2022/10/11 07:12:54;;;;;;;2.50;1.75;;;;;12.80;102497.00;;;;5067042;28;20592;-76
2022/10/11 07:15:21;;;;;;;3.33;1.88;;;;;12.90;102493.00;;;;5074373;28;20587;-76
2022/10/11 07:17:48;;;;;;;2.38;1.77;;;;;12.90;102500.00;;;;5069611;28;20710;-77
2022/10/11 07:20:16;;;;;;;3.05;1.70;;;;;13.00;102496.00;;;;5072587;28;20206;-77
2022/10/11 07:22:43;;;;;;;2.50;1.67;;;;;13.00;102501.00;;;;5083106;28;20205;-76
2022/10/11 07:25:12;;;;;;;4.85;2.20;;;;;13.10;102499.00;;;;5087401;28;20688;-76
2022/10/11 07:27:39;;;;;;;2.55;1.73;;;;;13.20;102513.00;;;;5081869;28;20228;-76
2022/10/11 07:30:07;;;;;;;3.05;2.08;;;;;13.20;102507.00;;;;5077758;28;20217;-77
2022/10/11 07:32:35;;;;;;;2.22;1.77;;;;;13.30;102507.00;;;;5080872;28;20203;-76
2022/10/11 07:35:02;;;;;;;3.15;1.98;;;;;13.30;102520.00;;;;5089690;28;20212;-77
2022/10/11 07:37:29;;;;;;;2.95;2.40;;;;;13.40;102523.00;;;;5092176;28;20213;-77
2022/10/11 07:39:56;;;;;;;4.50;1.95;;;;;13.50;102513.00;;;;5091874;28;20209;-76
2022/10/11 07:42:25;;;;;;;3.40;1.73;;;;;13.50;102512.00;;;;5082234;28;20218;-76
2022/10/11 07:44:52;;;;;;;2.08;1.95;;;;;13.60;102517.00;;;;5085941;28;20284;-77
2022/10/11 07:47:20;;;;;;;2.63;1.73;;;;;13.70;102521.00;;;;5091592;28;20198;-77
2022/10/11 07:49:47;;;;;;;3.28;2.17;;;;;13.80;102522.00;;;;5091295;28;20648;-77
2022/10/11 07:52:14;;;;;;;3.00;1.92;;;;;13.80;102521.00;;;;5091501;28;20198;-77
2022/10/11 07:54:41;;;;;;;3.20;2.10;;;;;13.90;102524.00;;;;5076171;28;20195;-77
2022/10/11 07:57:09;;;;;;;6.40;2.17;;;;;14.00;102523.00;;;;5073090;28;20202;-77
2022/10/11 07:59:37;;;;;;;4.15;2.00;;;;;14.10;102531.00;;;;5081878;28;20248;-77
2022/10/11 08:02:05;;;;;;;4.05;1.77;;;;;14.20;102532.00;;;;5081821;28;20218;-77
2022/10/11 08:04:32;;;;;;;4.22;2.08;;;;;14.30;102534.00;;;;5091152;28;20205;-77
2022/10/11 08:06:59;;;;;;;3.75;2.45;;;;;14.30;102529.00;;;;5075773;28;20199;-77
2022/10/11 08:09:26;;;;;;;3.55;2.30;;;;;14.40;102537.00;;;;5080898;28;20199;-77
2022/10/11 08:11:54;;;;;;;2.42;1.77;;;;;14.50;102546.00;;;;5091236;28;20205;-77
2022/10/11 08:14:21;;;;;;;3.65;1.92;;;;;14.60;102552.00;;;;5086505;28;20202;-77
2022/10/11 08:16:50;;;;;;;3.22;2.03;;;;;14.70;102547.00;;;;5091138;28;20202;-77
2022/10/11 08:19:18;;;;;;;4.78;2.08;;;;;14.70;102546.00;;;;5090581;28;20706;-77
2022/10/11 08:21:45;;;;;;;4.88;2.10;;;;;14.80;102554.00;;;;5091713;28;20206;-77
2022/10/11 08:24:13;;;;;;;3.00;1.80;;;;;14.80;102560.00;;;;5091275;28;20210;-77
2022/10/11 08:26:41;;;;;;;2.50;1.60;;;;;14.90;102558.00;;;;5088752;28;20214;-77
2022/10/11 08:29:09;;;;;;;3.95;2.10;;;;;15.00;102547.00;;;;5087104;28;20230;-77
2022/10/11 08:31:36;;;;;;;4.68;2.35;;;;;15.00;102553.00;;;;5089986;28;20194;-77
2022/10/11 08:34:05;;;;;;;4.78;1.92;;;;;15.10;102562.00;;;;5089840;28;20214;-76
2022/10/11 08:36:32;;;;;;;3.15;1.73;;;;;15.20;102560.00;;;;5091230;28;20766;-77
2022/10/11 08:39:00;;;;;;;5.70;2.10;;;;;15.30;102553.00;;;;5088129;28;20218;-77
2022/10/11 08:41:31;;;;;;;2.92;2.15;;;;;15.40;102557.00;;;;5075529;28;20566;-77
2022/10/11 08:44:10;;;;;;;2.67;1.33;;;;;15.50;102561.00;;;;5081655;28;20194;-77
2022/10/11 08:46:39;;;;;;;4.35;2.22;;;;;15.70;102566.00;;;;5090582;28;20194;-77
2022/10/11 08:49:08;;;;;;;4.53;2.13;;;;;15.80;102563.00;;;;5090032;28;20225;-77
2022/10/11 08:51:41;;;;;;;4.60;1.80;;;;;15.90;102566.00;;;;5090648;28;20213;-77
2022/10/11 08:54:15;;;;;;;4.25;1.90;;;;;16.00;102565.00;;;;5090644;28;20206;-77
2022/10/11 08:56:44;;;;;;;2.58;1.98;;;;;16.20;102565.00;;;;5090494;28;20694;-77
2022/10/11 08:59:26;;;;;;;5.13;1.65;;;;;16.20;102576.00;;;;5089235;28;20324;-77
2022/10/11 09:02:01;;;;;;;4.47;1.63;;;;;16.40;102577.00;;;;5076032;28;20249;-76
2022/10/11 09:04:31;;;;;;;5.50;1.83;;;;;16.50;102576.00;;;;5082468;28;20205;-76
2022/10/11 09:07:04;;;;;;;4.90;2.58;;;;;16.60;102579.00;;;;5086312;28;20369;-76
2022/10/11 09:09:58;;;;;;;3.33;1.90;;;;;16.70;102577.00;;;;5088924;28;20569;-76
2022/10/11 09:12:38;;;;;;;4.53;1.52;;;;;16.90;102575.00;;;;5081157;28;20309;-76
2022/10/11 09:15:27;;;;;;;4.68;1.88;;;;;17.00;102577.00;;;;5089609;28;20583;-76
2022/10/11 09:18:12;;;;;;;4.22;1.92;;;;;17.20;102577.00;;;;5088234;28;20218;-76
2022/10/11 09:20:59;;;;;;;3.30;1.75;;;;;17.30;102582.00;;;;5084087;28;20199;-76
2022/10/11 09:23:46;;;;;;;3.78;1.95;;;;;17.40;102576.00;;;;5076272;28;20206;-76
2022/10/11 09:26:21;;;;;;;4.85;1.83;;;;;17.70;102584.00;;;;5084909;28;20198;-76
2022/10/11 09:28:56;;;;;;;4.07;1.67;;;;;17.80;102581.00;;;;5087709;28;20221;-76
2022/10/11 09:31:24;;;;;;;2.65;1.63;;;;;18.00;102586.00;;;;5088897;28;20205;-75
2022/10/11 09:33:52;;;;;;;5.68;2.00;;;;;18.10;102584.00;;;;5088046;28;20278;-75
2022/10/11 09:36:28;;;;;;;3.42;1.85;;;;;18.20;102587.00;;;;5088699;28;20206;-75
2022/10/11 09:39:05;;;;;;;5.88;1.65;;;;;18.30;102585.00;;;;5081152;28;20229;-76
2022/10/11 09:41:39;;;;;;;4.88;1.77;;;;;18.50;102588.00;;;;5068100;28;20203;-76
2022/10/11 09:44:07;;;;;;;6.07;1.85;;;;;18.70;102602.00;;;;5079251;28;20252;-75
2022/10/11 09:46:37;;;;;;;5.43;2.03;;;;;18.80;102596.00;;;;5084804;28;20207;-75
2022/10/11 09:49:09;;;;;;;8.13;2.22;;;;;18.90;102591.00;;;;5083914;28;20202;-76
2022/10/11 09:51:40;;;;;;;5.97;1.33;;;;;19.10;102590.00;;;;5088438;28;20194;-75
2022/10/11 09:54:09;;;;;;;6.70;1.75;;;;;19.30;102590.00;;;;5088376;28;20684;-76
2022/10/11 09:56:42;;;;;;;5.28;1.42;;;;;19.40;102590.00;;;;5087334;28;20677;-75
2022/10/11 09:59:21;;;;;;;4.00;1.50;;;;;19.50;102589.00;;;;5072686;28;20269;-75
2022/10/11 10:01:48;;;;;;;2.53;1.15;;;;;19.70;102595.00;;;;5083255;28;20194;-75
2022/10/11 10:04:17;;;;;;;7.53;1.92;;;;;19.80;102596.00;;;;5086942;28;21124;-75
2022/10/11 10:06:45;;;;;;;5.80;1.17;;;;;19.90;102591.00;;;;5071100;28;20278;-76
2022/10/11 10:09:27;;;;;;;5.57;1.45;;;;;20.00;102595.00;;;;5084760;28;20590;-75
2022/10/11 10:11:55;;;;;;;5.07;1.90;;;;;20.20;102595.00;;;;5088771;28;20206;-75
2022/10/11 10:14:27;;;;;;;2.70;1.20;;;;;20.30;102601.00;;;;5087999;28;20210;-76
2022/10/11 10:17:03;;;;;;;3.08;1.25;;;;;20.40;102588.00;;;;5085301;28;20568;-75
2022/10/11 10:19:34;;;;;;;3.50;1.10;;;;;20.50;102590.00;;;;5080505;28;20226;-75
2022/10/11 10:22:03;;;;;;;2.65;0.85;;;;;20.60;102601.00;;;;5079982;28;20195;-75
2022/10/11 10:24:37;;;;;;;3.47;1.45;;;;;20.70;102593.00;;;;5073186;28;20709;-75
2022/10/11 10:27:17;;;;;;;4.72;0.70;;;;;20.70;102587.00;;;;5088236;28;20193;-76
2022/10/11 10:29:59;;;;;;;2.83;0.85;;;;;20.90;102590.00;;;;5086933;28;20213;-75
2022/10/11 10:32:32;;;;;;;2.65;0.50;;;;;21.00;102589.00;;;;5080329;28;20202;-76
2022/10/11 10:35:08;;;;;;;6.18;1.05;;;;;21.10;102586.00;;;;5075127;28;20191;-76
2022/10/11 10:37:43;;;;;;;6.90;0.70;;;;;21.20;102587.00;;;;5086340;28;20281;-76
2022/10/11 10:40:17;;;;;;;3.58;0.70;;;;;21.30;102587.00;;;;5087123;28;20213;-76
2022/10/11 10:42:44;;;;;;;5.47;0.52;;;;;21.40;102585.00;;;;5087721;28;20186;-76
2022/10/11 10:45:16;;;;;;;2.10;0.88;;;;;21.50;102584.00;;;;5088386;28;20202;-76
2022/10/11 10:48:07;;;;;;;2.85;0.80;;;;;21.50;102587.00;;;;5088294;28;20244;-76
2022/10/11 10:50:48;;;;;;;2.80;0.70;;;;;21.60;102584.00;;;;5084259;28;20197;-76
2022/10/11 10:53:25;;;;;;;3.78;0.75;;;;;21.70;102589.00;;;;5074125;28;20205;-76
2022/10/11 10:56:00;;;;;;;1.85;0.40;;;;;21.80;102581.00;;;;5073350;28;20205;-76
2022/10/11 10:58:52;;;;;;;4.13;1.60;;;;;21.80;102582.00;;;;5087883;28;20193;-76
2022/10/11 11:01:25;;;;;;;1.33;0.35;;;;;22.00;102578.00;;;;5086010;28;20194;-76
2022/10/11 11:04:01;;;;;;;5.85;0.80;;;;;22.00;102582.00;;;;5087560;28;20198;-76
2022/10/11 11:06:36;;;;;;;3.50;0.90;;;;;22.10;102579.00;;;;5070815;28;20221;-76
2022/10/11 11:09:19;;;;;;;4.00;1.05;;;;;22.10;102577.00;;;;5079422;28;20201;-76
2022/10/11 11:11:58;;;;;;;6.65;1.00;;;;;22.30;102576.00;;;;5082478;28;20194;-76
2022/10/11 11:14:44;;;;;;;4.40;0.93;;;;;22.30;102586.00;;;;5074423;28;20676;-75
2022/10/11 11:17:25;;;;;;;2.92;0.68;;;;;22.40;102572.00;;;;5087753;28;20190;-76
2022/10/11 11:20:14;;;;;;;3.17;0.90;;;;;22.40;102569.00;;;;5085981;28;20221;-76
2022/10/11 11:22:52;;;;;;;4.65;0.65;;;;;22.40;102574.00;;;;5087189;28;20528;-76
2022/10/11 11:25:30;;;;;;;4.13;0.90;;;;;22.50;102568.00;;;;5085947;28;20202;-76
2022/10/11 11:28:09;;;;;;;4.18;0.65;;;;;22.60;102568.00;;;;5080803;28;20199;-76
2022/10/11 11:30:43;;;;;;;1.73;0.50;;;;;22.60;102562.00;;;;5071827;28;20217;-76
2022/10/11 11:33:22;;;;;;;3.75;0.65;;;;;22.60;102563.00;;;;5087215;28;20190;-76
2022/10/11 11:35:52;;;;;;;3.33;0.70;;;;;22.70;102556.00;;;;5087212;28;20198;-76
2022/10/11 11:38:26;;;;;;;1.83;0.57;;;;;22.70;102556.00;;;;5082281;28;20733;-76
2022/10/11 11:41:00;;;;;;;3.00;0.60;;;;;22.80;102561.00;;;;5080162;28;20218;-76
2022/10/11 11:43:33;;;;;;;3.28;0.68;;;;;22.90;102555.00;;;;5079452;28;20266;-76
2022/10/11 11:46:08;;;;;;;6.57;1.00;;;;;22.90;102547.00;;;;5087627;28;20212;-75
2022/10/11 11:48:37;;;;;;;3.60;0.85;;;;;23.00;102548.00;;;;5071419;28;20213;-76
2022/10/11 11:51:10;;;;;;;2.22;0.55;;;;;23.00;102552.00;;;;5087275;28;20198;-76
2022/10/11 11:53:50;;;;;;;0.75;0.40;;;;;23.00;102546.00;;;;5087963;28;20222;-76
2022/10/11 11:56:27;;;;;;;2.22;0.70;;;;;23.00;102542.00;;;;5087526;28;20199;-76
2022/10/11 11:59:03;;;;;;;2.28;0.63;;;;;23.10;102544.00;;;;5085744;28;20668;-76
2022/10/11 12:01:39;;;;;;;2.03;1.00;;;;;23.10;102537.00;;;;5079570;28;20194;-76
2022/10/11 12:04:12;;;;;;;4.53;0.90;;;;;23.10;102533.00;;;;5086444;28;20198;-76
2022/10/11 12:06:40;;;;;;;3.53;0.70;;;;;23.20;102533.00;;;;5086356;28;20495;-76
2022/10/11 12:09:20;;;;;;;2.95;0.68;;;;;23.20;102540.00;;;;5083129;28;20210;-76
2022/10/11 12:11:55;;;;;;;5.68;0.65;;;;;23.20;102532.00;;;;5072209;28;20198;-76
2022/10/11 12:14:34;;;;;;;2.05;0.55;;;;;23.20;102529.00;;;;5086575;28;20212;-76
2022/10/11 12:17:12;;;;;;;2.83;0.65;;;;;23.20;102532.00;;;;5075315;28;20190;-76
2022/10/11 12:19:43;;;;;;;3.60;0.80;;;;;23.30;102534.00;;;;5089506;28;20230;-76
2022/10/11 12:22:18;;;;;;;3.63;0.57;;;;;23.30;102529.00;;;;5090277;28;20624;-76
2022/10/11 12:24:57;;;;;;;2.03;0.70;;;;;23.30;102526.00;;;;5090074;28;20221;-76
2022/10/11 12:27:40;;;;;;;4.55;1.00;;;;;23.30;102526.00;;;;5072759;28;20203;-76